createdAt,value
2024-05-09T00:00:47.171Z,17.33
2024-05-09T00:03:16.061Z,21.70
2024-05-09T00:05:45.124Z,21.07
2024-05-09T00:08:13.841Z,21.77
2024-05-09T00:10:42.230Z,21.97
2024-05-09T00:13:11.611Z,21.27
2024-05-09T00:15:42.006Z,21.00
2024-05-09T00:18:10.584Z,20.33
2024-05-09T00:20:41.036Z,21.30
2024-05-09T00:23:10.125Z,21.50
2024-05-09T00:25:38.383Z,21.10
2024-05-09T00:28:07.542Z,21.00
2024-05-09T00:30:37.268Z,20.07
2024-05-09T00:33:09.819Z,20.53
2024-05-09T00:35:39.427Z,19.57
2024-05-09T00:38:08.001Z,18.93
2024-05-09T00:40:41.137Z,20.00
2024-05-09T00:43:12.610Z,19.13
2024-05-09T00:45:42.183Z,20.00
2024-05-09T00:48:16.221Z,19.57
2024-05-09T00:50:47.804Z,19.10
2024-05-09T00:53:17.077Z,18.00
2024-05-09T00:55:46.062Z,18.97
2024-05-09T00:58:16.249Z,18.43
2024-05-09T01:00:44.876Z,18.30
2024-05-09T01:03:15.501Z,18.83
2024-05-09T01:05:44.946Z,18.33
2024-05-09T01:08:14.112Z,17.83
2024-05-09T01:10:45.194Z,17.83
2024-05-09T01:13:15.594Z,18.83
2024-05-09T01:15:43.985Z,19.73
2024-05-09T01:18:13.770Z,19.40
2024-05-09T01:20:45.521Z,18.37
2024-05-09T01:23:16.697Z,18.63
2024-05-09T01:25:46.208Z,19.23
2024-05-09T01:28:15.589Z,20.07
2024-05-09T01:30:43.939Z,20.50
2024-05-09T01:33:13.068Z,22.23
2024-05-09T01:35:42.978Z,20.90
2024-05-09T01:38:12.424Z,21.57
2024-05-09T01:40:43.232Z,21.77
2024-05-09T01:43:12.367Z,21.40
2024-05-09T01:45:41.445Z,19.63
2024-05-09T01:48:11.448Z,20.27
2024-05-09T01:50:42.495Z,20.37
2024-05-09T01:53:12.493Z,20.37
2024-05-09T01:55:43.526Z,19.17
2024-05-09T01:58:12.011Z,20.60
2024-05-09T02:00:42.696Z,19.47
2024-05-09T02:03:15.503Z,19.67
2024-05-09T02:05:46.866Z,19.77
2024-05-09T02:08:16.848Z,19.60
2024-05-09T02:10:48.493Z,20.30
2024-05-09T02:13:17.475Z,19.23
2024-05-09T02:15:46.094Z,20.80
2024-05-09T02:18:14.706Z,19.97
2024-05-09T02:20:43.840Z,20.67
2024-05-09T02:23:13.142Z,20.43
2024-05-09T02:25:42.464Z,19.90
2024-05-09T02:28:13.125Z,18.87
2024-05-09T02:30:42.822Z,20.50
2024-05-09T02:33:13.511Z,19.83
2024-05-09T02:35:44.014Z,20.23
2024-05-09T02:38:10.977Z,18.93
2024-05-09T02:40:40.346Z,19.20
2024-05-09T02:43:08.304Z,18.77
2024-05-09T02:45:39.984Z,19.00
2024-05-09T02:48:11.878Z,18.90
2024-05-09T02:50:40.419Z,19.60
2024-05-09T02:53:09.899Z,19.67
2024-05-09T02:55:36.694Z,18.43
2024-05-09T02:58:05.262Z,18.47
2024-05-09T03:00:38.291Z,19.40
2024-05-09T03:03:14.140Z,19.23
2024-05-09T03:05:42.266Z,19.43
2024-05-09T03:08:10.961Z,18.93
2024-05-09T03:10:38.912Z,19.00
2024-05-09T03:13:09.219Z,18.67
2024-05-09T03:15:35.729Z,19.90
2024-05-09T03:18:04.918Z,19.47
2024-05-09T03:20:35.505Z,19.73
2024-05-09T03:23:05.828Z,20.13
2024-05-09T03:25:32.919Z,20.00
2024-05-09T03:28:01.362Z,18.97
2024-05-09T03:30:36.095Z,18.83
2024-05-09T03:33:11.771Z,19.70
2024-05-09T03:35:40.530Z,17.83
2024-05-09T03:38:09.054Z,19.03
2024-05-09T03:40:37.558Z,18.60
2024-05-09T03:43:06.234Z,18.23
2024-05-09T03:45:32.651Z,18.47
2024-05-09T03:48:01.025Z,18.47
2024-05-09T03:50:33.819Z,18.00
2024-05-09T03:53:06.567Z,18.67
2024-05-09T03:55:32.953Z,18.17
2024-05-09T03:58:01.386Z,18.80
2024-05-09T04:00:35.527Z,17.87
2024-05-09T04:03:09.715Z,17.47
2024-05-09T04:05:38.871Z,18.87
2024-05-09T04:08:09.765Z,19.23
2024-05-09T04:10:36.188Z,18.20
2024-05-09T04:13:04.616Z,17.73
2024-05-09T04:15:31.074Z,18.60
2024-05-09T04:18:00.027Z,20.43
2024-05-09T04:22:57.935Z,23.20
2024-05-09T04:25:26.252Z,23.07
2024-05-09T04:27:55.286Z,22.17
2024-05-09T04:30:30.903Z,20.43
2024-05-09T04:33:06.426Z,21.57
2024-05-09T04:35:33.595Z,22.17
2024-05-09T04:38:02.025Z,23.30
2024-05-09T04:40:34.323Z,23.10
2024-05-09T04:43:05.147Z,21.97
2024-05-09T04:45:31.662Z,23.47
2024-05-09T04:48:00.386Z,23.23
2024-05-09T04:50:35.551Z,23.30
2024-05-09T04:53:07.479Z,22.80
2024-05-09T04:55:37.194Z,22.33
2024-05-09T04:58:06.012Z,22.33
2024-05-09T05:00:36.830Z,21.90
2024-05-09T05:03:08.696Z,21.37
2024-05-09T05:05:39.508Z,21.07
2024-05-09T05:08:09.747Z,21.53
2024-05-09T05:10:38.259Z,21.83
2024-05-09T05:13:20.854Z,20.17
2024-05-09T05:15:49.565Z,19.53
2024-05-09T05:18:18.777Z,20.67
2024-05-09T05:20:45.409Z,20.93
2024-05-09T05:23:15.131Z,20.40
2024-05-09T05:25:44.014Z,20.63
2024-05-09T05:28:12.403Z,21.67
2024-05-09T05:30:41.429Z,20.60
2024-05-09T05:33:12.508Z,20.87
2024-05-09T05:35:39.299Z,20.53
2024-05-09T05:38:08.280Z,20.50
2024-05-09T05:40:38.151Z,22.40
2024-05-09T05:43:10.808Z,22.73
2024-05-09T05:45:39.884Z,23.17
2024-05-09T05:48:07.269Z,23.13
2024-05-09T05:50:37.976Z,22.13
2024-05-09T05:53:06.193Z,20.90
2024-05-09T05:55:34.734Z,20.60
2024-05-09T05:58:01.346Z,20.47
2024-05-09T06:00:38.339Z,18.03
2024-05-09T06:03:07.230Z,18.43
2024-05-09T06:05:35.890Z,17.27
2024-05-09T06:08:02.354Z,17.70
2024-05-09T06:10:37.803Z,17.67
2024-05-09T06:13:06.742Z,18.13
2024-05-09T06:15:37.622Z,17.70
2024-05-09T06:18:05.082Z,19.07
2024-05-09T06:20:36.875Z,18.77
2024-05-09T06:23:05.344Z,19.57
2024-05-09T06:25:33.740Z,18.77
2024-05-09T06:28:00.428Z,19.47
2024-05-09T06:30:37.899Z,20.20
2024-05-09T06:33:10.614Z,19.63
2024-05-09T06:35:42.768Z,20.03
2024-05-09T06:38:09.927Z,20.07
2024-05-09T06:40:42.204Z,21.57
2024-05-09T06:43:10.857Z,21.43
2024-05-09T06:45:39.347Z,21.70
2024-05-09T06:48:09.240Z,22.47
2024-05-09T06:50:39.434Z,21.70
2024-05-09T06:53:06.570Z,21.90
2024-05-09T06:55:35.274Z,21.97
2024-05-09T06:58:01.741Z,22.00
2024-05-09T07:00:37.372Z,21.60
2024-05-09T07:03:10.120Z,21.93
2024-05-09T07:05:39.138Z,22.37
2024-05-09T07:08:06.363Z,22.87
2024-05-09T07:10:36.296Z,22.53
2024-05-09T07:13:07.578Z,22.67
2024-05-09T07:15:35.882Z,22.43
2024-05-09T07:18:10.275Z,23.60
2024-05-09T07:20:38.825Z,23.40
2024-05-09T07:23:05.297Z,23.73
2024-05-09T07:25:33.626Z,25.57
2024-05-09T07:27:59.976Z,24.70
2024-05-09T07:30:33.423Z,25.50
2024-05-09T07:33:01.677Z,26.20
2024-05-09T07:35:33.204Z,26.40
2024-05-09T07:37:59.666Z,26.80
2024-05-09T07:40:34.813Z,27.17
2024-05-09T07:43:03.266Z,26.77
2024-05-09T07:45:48.137Z,27.80
2024-05-09T07:52:37.178Z,27.07
2024-05-09T07:53:44.658Z,27.37
2024-05-09T07:56:17.566Z,26.37
2024-05-09T07:58:45.660Z,25.40
2024-05-09T08:01:13.976Z,24.33
2024-05-09T08:03:40.545Z,25.87
2024-05-09T08:06:10.994Z,24.70
2024-05-09T08:08:37.334Z,25.27
2024-05-09T08:11:07.537Z,24.40
2024-05-09T08:13:33.897Z,23.60
2024-05-09T08:16:02.322Z,23.43
2024-05-09T08:18:28.924Z,22.30
2024-05-09T08:20:57.426Z,21.30
2024-05-09T08:23:25.872Z,21.53
2024-05-09T08:25:54.281Z,21.70
2024-05-09T08:28:20.734Z,20.13
2024-05-09T08:30:49.391Z,20.03
2024-05-09T08:33:17.982Z,19.60
2024-05-09T08:35:46.458Z,20.20
2024-05-09T08:38:12.944Z,21.13
2024-05-09T08:40:43.520Z,20.57
2024-05-09T08:43:11.889Z,22.90
2024-05-09T08:45:42.119Z,20.33
2024-05-09T08:48:09.740Z,20.83
2024-05-09T08:50:39.766Z,21.80
2024-05-09T08:53:06.729Z,20.63
2024-05-09T08:55:38.185Z,21.07
2024-05-09T08:58:12.399Z,21.13
2024-05-09T09:00:40.181Z,20.43
2024-05-09T09:03:11.312Z,20.50
2024-05-09T09:05:41.897Z,20.13
2024-05-09T09:08:10.371Z,20.87
2024-05-09T09:10:37.594Z,19.47
2024-05-09T09:13:08.449Z,21.37
2024-05-09T09:15:46.209Z,22.33
2024-05-09T09:18:15.487Z,20.73
2024-05-09T09:20:41.933Z,20.37
2024-05-09T09:23:10.265Z,20.27
2024-05-09T09:25:39.141Z,19.87
2024-05-09T09:28:08.692Z,19.80
2024-05-09T09:30:38.649Z,19.53
2024-05-09T09:33:07.276Z,19.87
2024-05-09T09:35:35.203Z,19.90
2024-05-09T09:38:05.362Z,19.40
2024-05-09T09:40:35.921Z,19.27
2024-05-09T09:43:12.767Z,19.03
2024-05-09T09:45:41.615Z,19.13
2024-05-09T09:48:12.227Z,18.13
2024-05-09T09:50:39.755Z,18.23
2024-05-09T09:53:09.306Z,19.53
2024-05-09T09:55:36.949Z,19.60
2024-05-09T09:58:07.709Z,18.60
2024-05-09T10:00:35.989Z,17.37
2024-05-09T10:03:06.928Z,16.27
2024-05-09T10:05:33.830Z,16.27
2024-05-09T10:08:06.282Z,15.53
2024-05-09T10:10:34.611Z,13.43
2024-05-09T10:13:04.679Z,12.93
2024-05-09T10:15:44.563Z,12.73
2024-05-09T10:18:15.839Z,8.57
2024-05-09T10:20:42.625Z,9.77
2024-05-09T10:23:26.954Z,10.97
2024-05-09T10:25:57.349Z,9.97
2024-05-09T10:28:27.535Z,11.87
2024-05-09T10:31:02.551Z,12.73
2024-05-09T10:33:39.791Z,10.70
2024-05-09T10:36:11.046Z,12.63
2024-05-09T10:38:39.870Z,10.77
2024-05-09T10:41:06.259Z,11.67
2024-05-09T10:43:35.123Z,11.70
2024-05-09T10:46:01.407Z,12.83
2024-05-09T10:48:29.893Z,12.10
2024-05-09T10:50:58.389Z,17.53
2024-05-09T10:53:26.684Z,16.13
2024-05-09T10:55:56.162Z,17.60
2024-05-09T10:58:24.893Z,16.77
2024-05-09T11:00:51.379Z,16.87
2024-05-09T11:03:20.065Z,17.57
2024-05-09T11:05:46.872Z,17.93
2024-05-09T11:08:17.493Z,15.93
2024-05-09T11:10:44.107Z,14.63
2024-05-09T11:13:12.601Z,16.57
2024-05-09T11:15:39.623Z,16.40
2024-05-09T11:18:08.396Z,16.10
2024-05-09T11:20:35.567Z,16.33
2024-05-09T11:23:06.511Z,13.63
2024-05-09T11:25:34.792Z,14.40
2024-05-09T11:28:03.422Z,13.33
2024-05-09T11:30:34.100Z,13.23
2024-05-09T11:33:02.528Z,12.67
2024-05-09T11:35:28.822Z,13.53
2024-05-09T11:37:57.168Z,13.37
2024-05-09T11:40:25.926Z,14.10
2024-05-09T11:43:02.629Z,12.47
2024-05-09T11:45:29.144Z,12.80
2024-05-09T11:47:57.591Z,12.93
2024-05-09T11:50:29.952Z,11.80
2024-05-09T11:53:03.112Z,13.20
2024-05-09T11:55:30.049Z,13.23
2024-05-09T11:57:58.553Z,12.10
2024-05-09T12:00:34.095Z,13.30
2024-05-09T12:03:06.154Z,11.40
2024-05-09T12:05:33.361Z,11.83
2024-05-09T12:08:02.506Z,12.70
2024-05-09T12:10:33.508Z,13.20
2024-05-09T12:13:05.893Z,12.73
2024-05-09T12:15:37.945Z,10.63
2024-05-09T12:18:08.204Z,11.07
2024-05-09T12:20:37.949Z,10.43
2024-05-09T12:23:10.115Z,11.30
2024-05-09T12:25:37.565Z,11.27
2024-05-09T12:28:06.530Z,12.00
2024-05-09T12:30:39.838Z,10.60
2024-05-09T12:33:11.629Z,10.03
2024-05-09T12:35:39.177Z,10.77
2024-05-09T12:38:07.600Z,11.30
2024-05-09T12:40:37.294Z,9.07
2024-05-09T12:43:09.408Z,9.10
2024-05-09T12:45:39.273Z,9.50
2024-05-09T12:48:10.608Z,9.90
2024-05-09T12:50:38.146Z,8.63
2024-05-09T12:53:06.800Z,9.00
2024-05-09T12:55:41.143Z,8.20
2024-05-09T12:58:17.548Z,7.23
2024-05-09T13:00:46.814Z,7.83
2024-05-09T13:03:15.633Z,7.87
2024-05-09T13:05:43.923Z,7.80
2024-05-09T13:08:12.419Z,8.67
2024-05-09T13:10:38.752Z,8.40
2024-05-09T13:13:07.284Z,9.10
2024-05-09T13:15:33.940Z,10.33
2024-05-09T13:18:04.628Z,10.47
2024-05-09T13:20:34.435Z,11.67
2024-05-09T13:23:06.360Z,12.20
2024-05-09T13:25:33.913Z,12.13
2024-05-09T13:28:02.472Z,12.30
2024-05-09T13:30:37.297Z,11.87
2024-05-09T13:33:11.775Z,12.87
2024-05-09T13:35:40.157Z,13.17
2024-05-09T13:38:09.086Z,11.63
2024-05-09T13:40:36.468Z,12.00
2024-05-09T13:43:05.526Z,11.67
2024-05-09T13:45:32.071Z,11.97
2024-05-09T13:48:01.316Z,12.17
2024-05-09T13:50:34.427Z,13.30
2024-05-09T13:53:06.679Z,12.70
2024-05-09T13:55:34.391Z,11.93
2024-05-09T13:58:02.946Z,11.70
2024-05-09T14:00:41.977Z,9.60
2024-05-09T14:03:16.114Z,13.40
2024-05-09T14:05:45.311Z,12.50
2024-05-09T14:08:14.744Z,8.67
2024-05-09T14:10:43.037Z,7.23
2024-05-09T14:13:11.665Z,8.17
2024-05-09T14:15:38.665Z,10.40
2024-05-09T14:18:11.155Z,9.77
2024-05-09T14:20:39.410Z,9.17
2024-05-09T14:23:09.904Z,8.90
2024-05-09T14:25:41.240Z,8.90
2024-05-09T14:28:11.578Z,8.90
2024-05-09T14:30:39.191Z,8.10
2024-05-09T14:33:09.007Z,9.00
2024-05-09T14:35:36.698Z,9.53
2024-05-09T14:38:05.469Z,10.07
2024-05-09T14:40:41.120Z,9.90
2024-05-09T14:43:13.260Z,10.57
2024-05-09T14:45:40.568Z,10.90
2024-05-09T14:48:10.308Z,10.53
2024-05-09T14:50:39.296Z,10.23
2024-05-09T14:53:09.206Z,9.17
2024-05-09T14:55:38.377Z,9.07
2024-05-09T14:58:07.693Z,9.30
2024-05-09T15:00:38.473Z,9.13
2024-05-09T15:03:08.714Z,9.40
2024-05-09T15:05:35.125Z,8.30
2024-05-09T15:08:03.456Z,12.30
2024-05-09T15:10:34.779Z,11.87
2024-05-09T15:13:09.498Z,12.17
2024-05-09T15:15:37.698Z,14.50
2024-05-09T15:18:06.896Z,13.50
2024-05-09T15:20:36.209Z,15.40
2024-05-09T15:23:07.490Z,14.90
2024-05-09T15:25:34.061Z,14.70
2024-05-09T15:28:02.482Z,14.80
2024-05-09T15:30:33.372Z,13.83
2024-05-09T15:33:04.112Z,13.40
2024-05-09T15:35:31.044Z,12.90
2024-05-09T15:37:59.531Z,12.60
2024-05-09T15:40:35.286Z,11.43
2024-05-09T15:43:09.339Z,11.20
2024-05-09T15:45:39.658Z,11.87
2024-05-09T15:48:10.659Z,11.33
2024-05-09T15:50:40.749Z,12.27
2024-05-09T15:53:11.543Z,10.70
2024-05-09T15:55:38.738Z,12.63
2024-05-09T15:58:07.643Z,13.77
2024-05-09T16:00:38.779Z,14.27
2024-05-09T16:03:13.354Z,14.67
2024-05-09T16:05:41.576Z,13.23
2024-05-09T16:08:10.464Z,15.30
2024-05-09T16:10:40.012Z,13.60
2024-05-09T16:13:10.499Z,15.63
2024-05-09T16:15:40.424Z,14.70
2024-05-09T16:18:11.351Z,15.03
2024-05-09T16:20:41.116Z,14.97
2024-05-09T16:23:10.920Z,14.90
2024-05-09T16:25:38.326Z,15.63
2024-05-09T16:28:10.272Z,15.47
2024-05-09T16:30:37.355Z,14.00
2024-05-09T16:33:06.339Z,14.10
2024-05-09T16:35:35.254Z,13.37
2024-05-09T16:38:04.427Z,13.20
2024-05-09T16:40:37.806Z,12.67
2024-05-09T16:43:09.574Z,12.37
2024-05-09T16:45:36.457Z,12.03
2024-05-09T16:48:05.292Z,11.47
2024-05-09T16:50:33.968Z,11.30
2024-05-09T16:53:07.064Z,12.27
2024-05-09T16:55:34.180Z,11.67
2024-05-09T16:58:03.422Z,12.67
2024-05-09T17:00:39.360Z,9.93
2024-05-09T17:03:12.853Z,10.23
2024-05-09T17:05:40.659Z,9.50
2024-05-09T17:08:11.570Z,10.17
2024-05-09T17:10:37.992Z,10.23
2024-05-09T17:13:08.075Z,10.60
2024-05-09T17:15:37.715Z,9.87
2024-05-09T17:18:07.376Z,9.90
2024-05-09T17:20:36.461Z,9.37
2024-05-09T17:23:11.600Z,8.47
2024-05-09T17:25:40.065Z,9.23
2024-05-09T17:28:08.858Z,9.60
2024-05-09T17:30:39.935Z,9.33
2024-05-09T17:33:08.997Z,10.63
2024-05-09T17:35:38.434Z,11.00
2024-05-09T17:38:05.026Z,11.40
2024-05-09T17:40:36.225Z,10.80
2024-05-09T17:43:08.360Z,10.23
2024-05-09T17:45:38.554Z,9.93
2024-05-09T17:48:06.543Z,9.93
2024-05-09T17:50:37.257Z,9.27
2024-05-09T17:53:04.914Z,9.20
2024-05-09T17:55:33.733Z,10.30
2024-05-09T17:58:00.596Z,10.03
2024-05-09T18:00:37.944Z,9.87
2024-05-09T18:03:07.772Z,9.30
2024-05-09T18:05:37.259Z,9.93
2024-05-09T18:08:05.008Z,8.70
2024-05-09T18:10:37.423Z,8.87
2024-05-09T18:13:06.588Z,9.30
2024-05-09T18:15:37.740Z,9.43
2024-05-09T18:18:05.370Z,8.97
2024-05-09T18:20:41.851Z,9.27
2024-05-09T18:23:12.428Z,8.70
2024-05-09T18:25:40.848Z,9.23
2024-05-09T18:28:07.709Z,9.50
2024-05-09T18:30:38.423Z,7.57
2024-05-09T18:33:07.043Z,8.40
2024-05-09T18:35:37.046Z,8.90
2024-05-09T18:38:04.210Z,8.40
2024-05-09T18:40:35.960Z,8.17
2024-05-09T18:43:06.253Z,8.20
2024-05-09T18:45:38.937Z,8.10
2024-05-09T18:48:07.382Z,8.63
2024-05-09T18:50:39.709Z,7.30
2024-05-09T18:53:07.950Z,7.90
2024-05-09T18:55:36.442Z,7.57
2024-05-09T18:58:03.372Z,7.00
2024-05-09T19:00:36.229Z,6.93
2024-05-09T19:03:08.069Z,7.50
2024-05-09T19:05:37.465Z,7.47
2024-05-09T19:08:04.324Z,7.10
2024-05-09T19:10:35.092Z,7.47
2024-05-09T19:13:07.230Z,7.30
2024-05-09T19:15:40.236Z,6.73
2024-05-09T19:18:09.378Z,6.40
2024-05-09T19:20:38.326Z,6.80
2024-05-09T19:23:05.174Z,6.57
2024-05-09T19:25:34.244Z,7.17
2024-05-09T19:28:00.902Z,7.23
2024-05-09T19:30:37.578Z,7.73
2024-05-09T19:33:10.917Z,8.40
2024-05-09T19:35:40.398Z,7.43
2024-05-09T19:38:06.746Z,8.50
2024-05-09T19:40:35.872Z,8.17
2024-05-09T19:43:03.658Z,8.47
2024-05-09T19:45:33.264Z,8.83
2024-05-09T19:48:00.701Z,8.57
2024-05-09T19:50:39.319Z,8.20
2024-05-09T19:53:09.555Z,8.77
2024-05-09T19:55:38.143Z,8.37
2024-05-09T19:58:06.536Z,9.00
2024-05-09T20:00:38.544Z,9.03
2024-05-09T20:03:07.875Z,9.67
2024-05-09T20:05:39.264Z,9.17
2024-05-09T20:08:07.125Z,9.67
2024-05-09T20:10:36.588Z,9.83
2024-05-09T20:13:04.608Z,10.27
2024-05-09T20:15:35.203Z,9.30
2024-05-09T20:18:01.911Z,10.00
2024-05-09T20:20:37.444Z,10.13
2024-05-09T20:23:10.057Z,10.93
2024-05-09T20:25:38.548Z,10.57
2024-05-09T20:28:05.757Z,10.80
2024-05-09T20:30:35.890Z,10.40
2024-05-09T20:33:04.952Z,9.30
2024-05-09T20:35:35.035Z,9.83
2024-05-09T20:38:02.828Z,9.70
2024-05-09T20:40:37.686Z,9.63
2024-05-09T20:43:06.140Z,9.43
2024-05-09T20:45:35.259Z,9.97
2024-05-09T20:48:02.450Z,9.23
2024-05-09T20:50:37.831Z,9.93
2024-05-09T20:53:08.116Z,10.07
2024-05-09T20:55:38.679Z,10.47
2024-05-09T20:58:05.057Z,9.80
2024-05-09T21:00:39.661Z,10.23
2024-05-09T21:03:09.481Z,10.90
2024-05-09T21:05:38.543Z,11.47
2024-05-09T21:08:05.709Z,11.00
2024-05-09T21:10:34.706Z,11.27
2024-05-09T21:13:04.133Z,10.40
2024-05-09T21:15:33.060Z,10.97
2024-05-09T21:17:59.497Z,11.43
2024-05-09T21:20:31.767Z,10.80
2024-05-09T21:22:59.478Z,11.37
2024-05-09T21:25:27.889Z,11.13
2024-05-09T21:27:54.322Z,11.93
2024-05-09T21:32:54.277Z,11.43
2024-05-09T21:35:22.584Z,12.00
2024-05-09T21:37:48.837Z,11.93
2024-05-09T21:40:26.956Z,12.07
2024-05-09T21:42:59.976Z,12.00
2024-05-09T21:45:30.328Z,12.60
2024-05-09T21:47:56.795Z,11.97
2024-05-09T21:50:32.353Z,13.67
2024-05-09T21:53:05.460Z,13.60
2024-05-09T21:55:33.723Z,13.03
2024-05-09T21:58:00.134Z,12.47
2024-05-09T22:00:36.803Z,13.13
2024-05-09T22:03:05.532Z,13.37
2024-05-09T22:05:34.248Z,13.27
2024-05-09T22:08:00.859Z,12.83
2024-05-09T22:10:33.907Z,13.40
2024-05-09T22:13:02.434Z,13.50
2024-05-09T22:15:35.728Z,12.57
2024-05-09T22:18:02.952Z,13.37
2024-05-09T22:20:37.132Z,13.40
2024-05-09T22:23:05.541Z,13.70
2024-05-09T22:25:34.030Z,12.73
2024-05-09T22:28:00.934Z,12.33
2024-05-09T22:33:01.117Z,12.00
2024-05-09T22:35:29.456Z,12.80
2024-05-09T22:37:55.831Z,12.33
2024-05-09T22:40:33.046Z,11.77
2024-05-09T22:43:09.114Z,11.97
2024-05-09T22:45:37.483Z,11.60
2024-05-09T22:48:07.261Z,11.53
2024-05-09T22:50:35.993Z,11.33
2024-05-09T22:53:02.415Z,11.80
2024-05-09T22:55:30.627Z,11.83
2024-05-09T22:57:56.942Z,11.97
2024-05-09T23:00:31.413Z,11.70
2024-05-09T23:02:59.424Z,12.17
2024-05-09T23:05:30.030Z,12.20
2024-05-09T23:07:56.416Z,12.90
2024-05-09T23:10:31.714Z,13.27
2024-05-09T23:13:02.629Z,12.80
2024-05-09T23:15:31.041Z,13.97
2024-05-09T23:17:58.140Z,13.90
2024-05-09T23:20:35.950Z,13.33
2024-05-09T23:23:07.392Z,14.03
2024-05-09T23:25:35.673Z,12.53
2024-05-09T23:28:02.148Z,12.73
2024-05-09T23:30:37.430Z,12.87
2024-05-09T23:33:06.967Z,13.07
2024-05-09T23:35:35.376Z,13.77
2024-05-09T23:38:01.716Z,14.23
2024-05-09T23:43:01.532Z,13.07
2024-05-09T23:45:30.485Z,13.10
2024-05-09T23:47:56.950Z,13.33
2024-05-09T23:50:33.560Z,13.03
2024-05-09T23:53:03.005Z,13.37
2024-05-09T23:55:33.350Z,13.27
2024-05-09T23:57:59.833Z,12.90
